createdAt,value
2023-04-02T00:02:22.603Z,6.25
2023-04-02T00:05:16.713Z,6.27
2023-04-02T00:07:48.971Z,5.98
2023-04-02T00:10:26.227Z,5.95
2023-04-02T00:13:03.528Z,6.28
2023-04-02T00:15:31.040Z,6.23
2023-04-02T00:17:58.836Z,6.21
2023-04-02T00:20:27.617Z,5.83
2023-04-02T00:22:56.530Z,6.38
2023-04-02T00:25:28.218Z,6.16
2023-04-02T00:27:56.417Z,6.42
2023-04-02T00:30:23.422Z,6.31
2023-04-02T00:32:51.441Z,5.98
2023-04-02T00:35:25.120Z,6.36
2023-04-02T00:37:51.845Z,5.98
2023-04-02T00:40:39.654Z,6.17
2023-04-02T00:43:06.974Z,6.36
2023-04-02T00:45:37.632Z,6.23
2023-04-02T00:48:23.841Z,5.89
2023-04-02T00:50:53.336Z,5.97
2023-04-02T00:53:29.328Z,6.11
2023-04-02T00:55:58.954Z,6.27
2023-04-02T00:58:30.058Z,6.36
2023-04-02T01:00:58.882Z,6.17
2023-04-02T01:03:34.705Z,6.42
2023-04-02T01:06:11.002Z,6.13
2023-04-02T01:08:56.829Z,6.51
2023-04-02T01:11:50.946Z,6.57
2023-04-02T01:14:17.744Z,6.49
2023-04-02T01:16:46.366Z,6.48
2023-04-02T01:19:22.210Z,6.54
2023-04-02T01:22:04.203Z,6.53
2023-04-02T01:24:34.028Z,6.20
2023-04-02T01:27:13.103Z,6.50
2023-04-02T01:29:50.206Z,6.50
2023-04-02T01:32:20.431Z,6.28
2023-04-02T01:34:48.668Z,6.45
2023-04-02T01:37:37.171Z,6.50
2023-04-02T01:40:38.625Z,6.12
2023-04-02T01:43:29.989Z,6.35
2023-04-02T01:46:04.940Z,6.24
2023-04-02T01:48:32.144Z,5.98
2023-04-02T01:51:00.607Z,5.84
2023-04-02T01:53:30.434Z,5.90
2023-04-02T01:56:00.542Z,6.12
2023-04-02T01:58:32.924Z,5.75
2023-04-02T02:01:13.765Z,5.49
2023-04-02T02:03:42.467Z,5.55
2023-04-02T02:06:14.348Z,5.89
2023-04-02T02:08:54.907Z,5.86
2023-04-02T02:11:24.137Z,6.20
2023-04-02T02:13:55.595Z,5.97
2023-04-02T02:16:22.901Z,5.71
2023-04-02T02:18:53.492Z,6.21
2023-04-02T02:21:37.213Z,6.01
2023-04-02T02:24:05.093Z,5.97
2023-04-02T02:26:35.962Z,5.99
2023-04-02T02:29:07.054Z,6.33
2023-04-02T02:31:35.496Z,5.80
2023-04-02T02:34:09.035Z,6.13
2023-04-02T02:36:51.381Z,6.02
2023-04-02T02:39:37.296Z,6.35
2023-04-02T02:42:50.689Z,6.36
2023-04-02T02:45:22.806Z,6.20
2023-04-02T02:47:50.690Z,6.31
2023-04-02T02:50:31.813Z,6.25
2023-04-02T02:53:00.495Z,6.05
2023-04-02T02:55:37.190Z,6.18
2023-04-02T02:58:10.329Z,6.02
2023-04-02T03:00:39.353Z,6.32
2023-04-02T03:03:10.766Z,5.95
2023-04-02T03:05:39.161Z,5.88
2023-04-02T03:08:12.599Z,6.04
2023-04-02T03:11:23.946Z,6.03
2023-04-02T03:13:56.176Z,6.40
2023-04-02T03:16:29.897Z,6.06
2023-04-02T03:19:08.342Z,6.04
2023-04-02T03:22:03.997Z,6.33
2023-04-02T03:24:55.329Z,6.27
2023-04-02T03:27:54.027Z,6.37
2023-04-02T03:30:34.204Z,6.32
2023-04-02T03:33:06.468Z,6.33
2023-04-02T03:35:43.751Z,6.42
2023-04-02T03:38:18.832Z,6.17
2023-04-02T03:40:59.222Z,6.00
2023-04-02T03:43:30.943Z,6.33
2023-04-02T03:46:07.155Z,6.15
2023-04-02T03:48:41.004Z,6.44
2023-04-02T03:51:20.556Z,6.41
2023-04-02T03:53:48.412Z,6.08
2023-04-02T03:56:40.041Z,6.38
2023-04-02T03:59:27.058Z,6.41
2023-04-02T04:02:00.007Z,6.07
2023-04-02T04:04:30.115Z,5.88
2023-04-02T04:06:58.601Z,6.26
2023-04-02T04:09:37.212Z,6.36
2023-04-02T04:12:14.892Z,6.35
2023-04-02T04:14:48.428Z,6.16
2023-04-02T04:17:30.258Z,6.31
2023-04-02T04:20:08.713Z,6.29
2023-04-02T04:22:35.481Z,6.03
2023-04-02T04:25:18.084Z,6.35
2023-04-02T04:28:16.615Z,6.26
2023-04-02T04:30:52.967Z,6.14
2023-04-02T04:33:25.695Z,6.32
2023-04-02T04:35:57.620Z,5.83
2023-04-02T04:38:35.039Z,6.20
2023-04-02T04:41:13.038Z,6.16
2023-04-02T04:43:50.626Z,6.23
2023-04-02T04:46:30.613Z,6.45
2023-04-02T04:49:10.735Z,5.94
2023-04-02T04:51:43.077Z,6.34
2023-04-02T04:54:13.616Z,6.24
2023-04-02T04:56:44.728Z,5.94
2023-04-02T04:59:24.918Z,6.38
2023-04-02T05:02:06.097Z,6.25
2023-04-02T05:04:37.442Z,6.47
2023-04-02T05:07:21.695Z,6.34
2023-04-02T05:10:19.350Z,6.50
2023-04-02T05:12:54.706Z,6.53
2023-04-02T05:15:33.713Z,6.03
2023-04-02T05:18:09.490Z,6.47
2023-04-02T05:20:44.227Z,6.40
2023-04-02T05:23:18.365Z,6.27
2023-04-02T05:26:21.925Z,6.55
2023-04-02T05:29:13.692Z,6.14
2023-04-02T05:32:03.640Z,6.55
2023-04-02T05:34:36.364Z,6.51
2023-04-02T05:37:06.953Z,6.29
2023-04-02T05:39:33.996Z,6.41
2023-04-02T05:42:06.124Z,6.11
2023-04-02T05:44:39.048Z,6.21
2023-04-02T05:47:14.784Z,6.44
2023-04-02T05:49:51.496Z,6.20
2023-04-02T05:52:25.179Z,6.60
2023-04-02T05:55:02.880Z,6.68
2023-04-02T05:57:43.823Z,6.32
2023-04-02T06:00:18.802Z,6.33
2023-04-02T06:02:54.962Z,6.43
2023-04-02T06:05:26.558Z,6.55
2023-04-02T06:08:03.714Z,6.46
2023-04-02T06:10:36.153Z,6.44
2023-04-02T06:13:07.097Z,6.76
2023-04-02T06:15:36.848Z,6.67
2023-04-02T06:18:28.824Z,6.50
2023-04-02T06:20:55.520Z,6.58
2023-04-02T06:23:40.035Z,6.78
2023-04-02T06:26:36.689Z,6.83
2023-04-02T06:29:14.102Z,6.28
2023-04-02T06:32:13.060Z,6.91
2023-04-02T06:34:42.487Z,6.66
2023-04-02T06:37:39.525Z,6.97
2023-04-02T06:40:26.182Z,6.68
2023-04-02T06:42:59.632Z,6.29
2023-04-02T06:45:33.868Z,6.70
2023-04-02T06:48:03.706Z,6.64
2023-04-02T06:50:46.017Z,6.87
2023-04-02T06:53:36.361Z,6.88
2023-04-02T06:56:32.044Z,6.98
2023-04-02T06:58:59.067Z,6.61
2023-04-02T07:01:29.271Z,6.87
2023-04-02T07:03:56.474Z,7.09
2023-04-02T07:06:23.249Z,6.75
2023-04-02T07:08:50.025Z,6.56
2023-04-02T07:11:20.916Z,6.59
2023-04-02T07:13:49.123Z,7.01
2023-04-02T07:16:22.419Z,6.93
2023-04-02T07:18:49.782Z,7.13
2023-04-02T07:21:16.552Z,7.09
2023-04-02T07:23:43.625Z,6.88
2023-04-02T07:26:16.543Z,7.45
2023-04-02T07:28:43.382Z,6.97
2023-04-02T07:31:25.931Z,7.07
2023-04-02T07:33:59.799Z,7.53
2023-04-02T07:36:28.937Z,7.39
2023-04-02T07:38:56.038Z,6.93
2023-04-02T07:41:23.345Z,7.18
2023-04-02T07:43:50.041Z,7.15
2023-04-02T07:46:18.162Z,7.29
2023-04-02T07:48:45.161Z,7.45
2023-04-02T07:51:23.813Z,7.36
2023-04-02T07:53:54.918Z,7.14
2023-04-02T07:56:22.558Z,7.57
2023-04-02T07:58:49.438Z,7.08
2023-04-02T08:01:19.752Z,7.31
2023-04-02T08:03:47.028Z,7.18
2023-04-02T08:06:13.838Z,6.95
2023-04-02T08:08:41.202Z,7.11
2023-04-02T08:11:08.534Z,7.19
2023-04-02T08:13:35.332Z,6.96
2023-04-02T08:16:02.533Z,6.98
2023-04-02T08:18:30.031Z,7.37
2023-04-02T08:20:57.606Z,7.15
2023-04-02T08:23:24.531Z,7.41
2023-04-02T08:25:52.008Z,7.16
2023-04-02T08:28:18.697Z,7.45
2023-04-02T08:30:45.725Z,7.25
2023-04-02T08:33:12.517Z,7.07
2023-04-02T08:35:39.453Z,7.25
2023-04-02T08:38:06.438Z,7.45
2023-04-02T08:40:39.217Z,7.42
2023-04-02T08:43:23.105Z,7.84
2023-04-02T08:46:09.145Z,7.69
2023-04-02T08:48:40.772Z,7.95
2023-04-02T08:51:22.154Z,8.21
2023-04-02T08:53:49.411Z,7.82
2023-04-02T08:56:28.543Z,7.88
2023-04-02T08:58:58.309Z,8.03
2023-04-02T09:01:42.590Z,8.22
2023-04-02T09:04:19.033Z,7.44
2023-04-02T09:06:47.353Z,7.54
2023-04-02T09:09:15.768Z,7.92
2023-04-02T09:12:14.807Z,8.06
2023-04-02T09:15:16.322Z,8.17
2023-04-02T09:17:53.732Z,8.22
2023-04-02T09:20:29.279Z,8.03
2023-04-02T09:22:57.028Z,7.91
2023-04-02T09:25:31.371Z,7.57
2023-04-02T09:28:02.012Z,8.11
2023-04-02T09:30:31.912Z,8.27
2023-04-02T09:33:07.803Z,8.23
2023-04-02T09:35:57.872Z,8.23
2023-04-02T09:38:33.083Z,8.35
2023-04-02T09:41:05.301Z,8.25
2023-04-02T09:43:37.574Z,8.39
2023-04-02T09:46:15.546Z,8.07
2023-04-02T09:48:53.399Z,8.05
2023-04-02T09:51:29.998Z,8.29
2023-04-02T09:54:02.709Z,8.16
2023-04-02T09:56:35.195Z,8.41
2023-04-02T09:59:17.449Z,8.26
2023-04-02T10:01:47.981Z,8.58
2023-04-02T10:04:48.435Z,8.49
2023-04-02T10:07:37.158Z,8.87
2023-04-02T10:10:29.016Z,8.63
2023-04-02T10:13:07.086Z,8.67
2023-04-02T10:15:47.787Z,8.33
2023-04-02T10:18:24.768Z,8.08
2023-04-02T10:20:54.500Z,7.94
2023-04-02T10:23:26.095Z,8.42
2023-04-02T10:26:17.211Z,8.68
2023-04-02T10:28:53.037Z,8.70
2023-04-02T10:31:26.472Z,8.57
2023-04-02T10:34:00.865Z,8.84
2023-04-02T10:36:54.484Z,8.74
2023-04-02T10:39:27.461Z,8.74
2023-04-02T10:42:13.817Z,8.25
2023-04-02T10:44:48.208Z,8.64
2023-04-02T10:47:26.872Z,8.62
2023-04-02T10:50:29.491Z,8.16
2023-04-02T10:53:18.900Z,8.57
2023-04-02T10:55:56.472Z,8.44
2023-04-02T10:58:24.743Z,8.77
2023-04-02T11:00:59.541Z,8.89
2023-04-02T11:03:44.949Z,8.74
2023-04-02T11:06:20.481Z,8.66
2023-04-02T11:08:50.635Z,9.29
2023-04-02T11:11:28.249Z,8.85
2023-04-02T11:14:33.372Z,8.84
2023-04-02T11:17:03.436Z,8.93
2023-04-02T11:19:32.450Z,8.73
2023-04-02T11:22:16.648Z,9.03
2023-04-02T11:24:55.575Z,9.16
2023-04-02T11:27:30.733Z,9.25
2023-04-02T11:30:04.008Z,9.42
2023-04-02T11:32:42.629Z,9.27
2023-04-02T11:35:30.218Z,9.27
2023-04-02T11:37:59.823Z,8.99
2023-04-02T11:40:49.988Z,9.44
2023-04-02T11:43:35.382Z,9.54
2023-04-02T11:46:03.113Z,9.62
2023-04-02T11:48:36.248Z,9.55
2023-04-02T11:51:22.556Z,9.29
2023-04-02T11:53:54.833Z,8.97
2023-04-02T11:56:39.593Z,9.63
2023-04-02T11:59:21.386Z,9.54
2023-04-02T12:02:11.338Z,9.54
2023-04-02T12:04:53.139Z,9.60
2023-04-02T12:07:52.283Z,9.23
2023-04-02T12:10:21.920Z,9.54
2023-04-02T12:12:49.430Z,9.74
2023-04-02T12:15:28.752Z,9.65
2023-04-02T12:18:18.586Z,8.99
2023-04-02T12:20:50.908Z,8.97
2023-04-02T12:23:22.020Z,8.99
2023-04-02T12:25:56.736Z,9.08
2023-04-02T12:28:23.402Z,8.84
2023-04-02T12:30:52.107Z,9.06
2023-04-02T12:33:37.630Z,9.09
2023-04-02T12:36:19.915Z,8.95
2023-04-02T12:38:47.933Z,9.04
2023-04-02T12:41:36.185Z,9.10
2023-04-02T12:44:13.648Z,9.28
2023-04-02T12:46:40.670Z,9.22
2023-04-02T12:49:12.015Z,9.18
2023-04-02T12:51:39.578Z,9.17
2023-04-02T12:54:06.395Z,9.27
2023-04-02T12:56:33.162Z,9.25
2023-04-02T12:59:01.419Z,9.38
2023-04-02T13:01:31.617Z,8.83
2023-04-02T13:04:14.972Z,9.02
2023-04-02T13:06:49.485Z,8.82
2023-04-02T13:09:41.237Z,9.13
2023-04-02T13:12:33.946Z,9.07
2023-04-02T13:15:03.344Z,9.78
2023-04-02T13:17:37.025Z,9.51
2023-04-02T13:20:31.688Z,9.80
2023-04-02T13:23:00.855Z,9.18
2023-04-02T13:25:35.380Z,9.76
2023-04-02T13:28:02.681Z,9.29
2023-04-02T13:30:29.798Z,9.57
2023-04-02T13:32:56.674Z,9.49
2023-04-02T13:35:24.670Z,9.23
2023-04-02T13:37:51.463Z,8.78
2023-04-02T13:40:19.373Z,9.32
2023-04-02T13:42:47.263Z,9.68
2023-04-02T13:45:24.390Z,9.74
2023-04-02T13:47:51.505Z,9.87
2023-04-02T13:50:21.616Z,10.15
2023-04-02T13:52:51.551Z,9.86
2023-04-02T13:55:21.180Z,9.76
2023-04-02T13:57:48.539Z,9.97
2023-04-02T14:00:15.532Z,9.63
2023-04-02T14:02:47.439Z,10.25
2023-04-02T14:05:21.661Z,9.95
2023-04-02T14:08:01.912Z,9.66
2023-04-02T14:10:53.204Z,9.93
2023-04-02T14:13:28.916Z,10.35
2023-04-02T14:16:20.699Z,10.20
2023-04-02T14:19:19.621Z,10.51
2023-04-02T14:21:58.220Z,10.13
2023-04-02T14:24:56.842Z,10.93
2023-04-02T14:27:45.802Z,10.11
2023-04-02T14:30:27.434Z,10.04
2023-04-02T14:33:20.380Z,10.21
2023-04-02T14:35:54.773Z,9.98
2023-04-02T14:38:43.198Z,10.42
2023-04-02T14:41:17.772Z,9.67
2023-04-02T14:44:04.624Z,9.99
2023-04-02T14:46:37.295Z,9.51
2023-04-02T14:49:07.264Z,9.42
2023-04-02T14:51:49.992Z,8.98
2023-04-02T14:54:37.885Z,9.35
2023-04-02T14:57:12.323Z,9.29
2023-04-02T15:00:02.085Z,9.30
2023-04-02T15:03:27.632Z,9.62
2023-04-02T15:05:58.966Z,9.87
2023-04-02T15:08:50.073Z,9.78
2023-04-02T15:11:35.868Z,9.28
2023-04-02T15:14:17.533Z,9.56
2023-04-02T15:16:45.280Z,9.07
2023-04-02T15:19:17.785Z,8.93
2023-04-02T15:21:59.965Z,8.85
2023-04-02T15:25:04.781Z,9.56
2023-04-02T15:28:01.963Z,9.65
2023-04-02T15:30:35.460Z,9.58
2023-04-02T15:33:34.174Z,9.24
2023-04-02T15:36:19.643Z,9.04
2023-04-02T15:38:52.568Z,9.57
2023-04-02T15:41:23.626Z,9.74
2023-04-02T15:44:16.568Z,9.36
2023-04-02T15:47:30.917Z,9.23
2023-04-02T15:50:27.703Z,8.90
2023-04-02T15:53:15.894Z,9.43
2023-04-02T15:55:49.983Z,9.15
2023-04-02T15:58:38.313Z,9.34
2023-04-02T16:01:09.878Z,8.99
2023-04-02T16:03:55.452Z,9.40
2023-04-02T16:06:34.756Z,9.19
2023-04-02T16:09:28.181Z,9.20
2023-04-02T16:12:01.672Z,8.85
2023-04-02T16:14:31.398Z,9.53
2023-04-02T16:17:21.505Z,8.92
2023-04-02T16:20:05.502Z,9.61
2023-04-02T16:22:37.256Z,9.48
2023-04-02T16:25:19.488Z,9.08
2023-04-02T16:28:21.965Z,9.25
2023-04-02T16:31:23.638Z,9.75
2023-04-02T16:34:00.158Z,10.00
2023-04-02T16:36:36.075Z,9.52
2023-04-02T16:39:32.957Z,9.03
2023-04-02T16:42:11.733Z,9.06
2023-04-02T16:45:00.098Z,8.97
2023-04-02T16:47:37.526Z,9.44
2023-04-02T16:50:26.905Z,9.15
2023-04-02T16:53:05.600Z,9.36
2023-04-02T16:55:41.139Z,9.46
2023-04-02T16:58:26.586Z,9.27
2023-04-02T17:01:06.951Z,9.17
2023-04-02T17:03:56.993Z,8.91
2023-04-02T17:06:38.197Z,8.55
2023-04-02T17:09:17.040Z,8.31
2023-04-02T17:11:47.470Z,8.72
2023-04-02T17:14:26.449Z,8.48
2023-04-02T17:17:00.817Z,8.41
2023-04-02T17:19:29.910Z,8.10
2023-04-02T17:22:00.663Z,8.02
2023-04-02T17:24:35.700Z,8.29
2023-04-02T17:27:28.929Z,8.54
2023-04-02T17:30:03.773Z,8.64
2023-04-02T17:32:33.153Z,8.13
2023-04-02T17:35:15.800Z,8.51
2023-04-02T17:37:47.354Z,8.65
2023-04-02T17:40:20.033Z,8.51
2023-04-02T17:43:12.677Z,7.88
2023-04-02T17:45:42.424Z,8.23
2023-04-02T17:48:39.194Z,8.30
2023-04-02T17:51:31.878Z,8.40
2023-04-02T17:54:04.708Z,8.27
2023-04-02T17:56:50.415Z,8.08
2023-04-02T17:59:52.643Z,7.56
2023-04-02T18:02:22.391Z,7.86
2023-04-02T18:05:10.751Z,7.86
2023-04-02T18:08:03.447Z,7.59
2023-04-02T18:10:57.506Z,7.72
2023-04-02T18:13:35.548Z,7.63
2023-04-02T18:16:59.498Z,7.78
2023-04-02T18:19:42.095Z,7.73
2023-04-02T18:22:08.730Z,7.39
2023-04-02T18:24:55.874Z,7.75
2023-04-02T18:27:39.037Z,7.42
2023-04-02T18:30:17.500Z,7.60
2023-04-02T18:33:04.785Z,7.51
2023-04-02T18:35:57.179Z,7.16
2023-04-02T18:38:38.906Z,7.30
2023-04-02T18:41:43.677Z,7.18
2023-04-02T18:44:42.103Z,7.19
2023-04-02T18:47:20.482Z,6.84
2023-04-02T18:49:54.089Z,6.90
2023-04-02T18:52:21.506Z,7.00
2023-04-02T18:55:05.648Z,7.12
2023-04-02T18:57:36.241Z,6.82
2023-04-02T19:00:05.889Z,6.94
2023-04-02T19:02:42.993Z,6.72
2023-04-02T19:05:31.346Z,6.85
2023-04-02T19:08:14.175Z,6.85
2023-04-02T19:10:45.073Z,6.68
2023-04-02T19:13:19.765Z,6.95
2023-04-02T19:15:58.488Z,6.88
2023-04-02T19:18:34.582Z,6.70
2023-04-02T19:21:15.151Z,6.36
2023-04-02T19:23:44.754Z,6.74
2023-04-02T19:26:18.493Z,6.68
2023-04-02T19:29:22.236Z,6.58
2023-04-02T19:32:31.430Z,6.58
2023-04-02T19:35:06.752Z,6.39
2023-04-02T19:37:51.546Z,6.45
2023-04-02T19:40:42.858Z,6.50
2023-04-02T19:43:10.760Z,6.20
2023-04-02T19:45:43.349Z,6.37
2023-04-02T19:48:21.056Z,6.05
2023-04-02T19:50:49.273Z,6.19
2023-04-02T19:53:16.709Z,6.38
2023-04-02T19:55:44.662Z,6.02
2023-04-02T19:58:24.674Z,6.19
2023-04-02T20:00:51.398Z,6.12
2023-04-02T20:03:18.009Z,5.86
2023-04-02T20:05:44.771Z,6.10
2023-04-02T20:08:11.711Z,5.77
2023-04-02T20:10:38.536Z,5.81
2023-04-02T20:13:05.477Z,5.94
2023-04-02T20:15:32.492Z,6.10
2023-04-02T20:17:59.163Z,6.19
2023-04-02T20:20:25.849Z,6.00
2023-04-02T20:22:52.464Z,5.74
2023-04-02T20:25:19.101Z,6.14
2023-04-02T20:27:46.162Z,5.88
2023-04-02T20:30:13.160Z,6.05
2023-04-02T20:32:40.647Z,5.75
2023-04-02T20:35:07.734Z,5.62
2023-04-02T20:37:34.905Z,5.65
2023-04-02T20:40:01.571Z,5.84
2023-04-02T20:42:28.435Z,5.70
2023-04-02T20:44:55.063Z,5.81
2023-04-02T20:47:21.753Z,6.14
2023-04-02T20:49:50.324Z,6.14
2023-04-02T20:52:17.034Z,5.71
2023-04-02T20:54:43.725Z,5.95
2023-04-02T20:57:10.459Z,5.61
2023-04-02T20:59:37.152Z,5.67
2023-04-02T21:02:03.799Z,5.40
2023-04-02T21:04:30.530Z,5.88
2023-04-02T21:06:57.707Z,6.00
2023-04-02T21:09:24.385Z,5.93
2023-04-02T21:11:51.273Z,5.94
2023-04-02T21:14:18.871Z,5.58
2023-04-02T21:16:45.949Z,5.64
2023-04-02T21:19:12.648Z,5.59
2023-04-02T21:21:40.662Z,5.64
2023-04-02T21:24:09.108Z,5.44
2023-04-02T21:26:38.659Z,5.88
2023-04-02T21:29:05.594Z,5.47
2023-04-02T21:31:37.760Z,5.49
2023-04-02T21:34:06.178Z,5.57
2023-04-02T21:36:35.577Z,5.49
2023-04-02T21:39:08.481Z,5.61
2023-04-02T21:41:41.584Z,5.28
2023-04-02T21:44:10.370Z,5.50
2023-04-02T21:46:44.392Z,5.35
2023-04-02T21:49:13.703Z,5.57
2023-04-02T21:51:41.970Z,5.64
2023-04-02T21:54:09.071Z,5.11
2023-04-02T21:56:41.305Z,5.55
2023-04-02T21:59:10.092Z,5.37
2023-04-02T22:02:04.919Z,5.49
2023-04-02T22:04:33.527Z,5.39
2023-04-02T22:07:00.520Z,5.47
2023-04-02T22:09:27.706Z,5.33
2023-04-02T22:12:00.227Z,5.35
2023-04-02T22:14:27.684Z,5.12
2023-04-02T22:16:54.611Z,5.38
2023-04-02T22:19:22.097Z,5.38
2023-04-02T22:21:51.772Z,5.29
2023-04-02T22:24:22.203Z,5.20
2023-04-02T22:26:51.552Z,5.19
2023-04-02T22:29:18.317Z,5.09
2023-04-02T22:31:45.236Z,5.29
2023-04-02T22:34:15.643Z,5.03
2023-04-02T22:36:42.379Z,5.13
2023-04-02T22:39:12.527Z,5.31
2023-04-02T22:41:39.372Z,4.88
2023-04-02T22:44:06.133Z,5.26
2023-04-02T22:46:33.057Z,5.10
2023-04-02T22:48:59.832Z,5.22
2023-04-02T22:51:28.115Z,5.11
2023-04-02T22:53:56.060Z,5.17
2023-04-02T22:56:32.291Z,5.02
2023-04-02T22:58:59.568Z,4.71
2023-04-02T23:01:34.031Z,5.13
2023-04-02T23:04:01.067Z,4.81
2023-04-02T23:06:28.371Z,4.93
2023-04-02T23:08:55.032Z,4.96
2023-04-02T23:11:24.324Z,5.14
2023-04-02T23:13:52.815Z,5.16
2023-04-02T23:16:20.663Z,5.05
2023-04-02T23:18:48.205Z,4.71
2023-04-02T23:21:16.509Z,4.76
2023-04-02T23:23:43.960Z,4.96
2023-04-02T23:26:22.418Z,5.05
2023-04-02T23:28:50.288Z,4.71
2023-04-02T23:31:22.594Z,5.06
2023-04-02T23:33:50.649Z,4.81
2023-04-02T23:36:26.630Z,4.75
2023-04-02T23:38:55.754Z,4.79
2023-04-02T23:41:24.322Z,4.91
2023-04-02T23:43:51.163Z,4.79
2023-04-02T23:46:17.931Z,4.69
2023-04-02T23:48:45.986Z,4.53
2023-04-02T23:51:13.631Z,4.98
2023-04-02T23:53:40.493Z,4.83
2023-04-02T23:56:07.503Z,4.50
2023-04-02T23:58:34.164Z,4.64
